createdAt,value
2019-02-06T00:01:46.682Z,35.38
2019-02-06T00:04:16.291Z,38.38
2019-02-06T00:06:42.724Z,32.60
2019-02-06T00:09:11.469Z,35.83
2019-02-06T00:11:38.101Z,37.63
2019-02-06T00:14:05.044Z,37.53
2019-02-06T00:16:31.702Z,39.18
2019-02-06T00:18:58.194Z,32.85
2019-02-06T00:21:24.925Z,32.17
2019-02-06T00:23:51.796Z,35.83
2019-02-06T00:26:18.734Z,40.73
2019-02-06T00:28:46.337Z,37.10
2019-02-06T00:31:13.075Z,35.35
2019-02-06T00:33:39.483Z,40.23
2019-02-06T00:36:05.943Z,47.73
2019-02-06T00:38:32.388Z,34.50
2019-02-06T00:40:58.924Z,32.33
2019-02-06T00:43:26.149Z,42.88
2019-02-06T00:45:52.580Z,36.80
2019-02-06T00:48:19.764Z,37.03
2019-02-06T00:50:46.252Z,34.53
2019-02-06T00:53:12.610Z,39.38
2019-02-06T00:55:39.230Z,32.17
2019-02-06T00:58:05.755Z,35.05
2019-02-06T01:00:32.492Z,32.35
2019-02-06T01:03:06.811Z,33.90
2019-02-06T01:05:38.323Z,33.45
2019-02-06T01:08:01.610Z,34.95
2019-02-06T01:10:28.130Z,32.73
2019-02-06T01:12:55.301Z,34.45
2019-02-06T01:15:22.268Z,33.38
2019-02-06T01:17:48.816Z,33.33
2019-02-06T01:20:17.160Z,36.58
2019-02-06T01:22:43.674Z,31.75
2019-02-06T01:25:16.138Z,30.68
2019-02-06T01:27:43.235Z,31.95
2019-02-06T01:30:16.359Z,34.08
2019-02-06T01:32:42.728Z,35.08
2019-02-06T01:35:11.546Z,33.67
2019-02-06T01:37:38.100Z,27.93
2019-02-06T01:40:06.839Z,36.30
2019-02-06T01:42:33.596Z,32.38
2019-02-06T01:45:00.605Z,29.67
2019-02-06T01:47:28.446Z,38.70
2019-02-06T01:49:55.046Z,32.93
2019-02-06T01:52:21.779Z,32.53
2019-02-06T01:54:48.979Z,30.92
2019-02-06T01:57:15.411Z,30.20
2019-02-06T01:59:42.252Z,30.12
2019-02-06T02:02:09.404Z,29.50
2019-02-06T02:04:35.946Z,31.42
2019-02-06T02:07:02.615Z,30.77
2019-02-06T02:09:29.407Z,34.18
2019-02-06T02:11:56.386Z,32.93
2019-02-06T02:14:23.271Z,38.67
2019-02-06T02:16:49.983Z,38.33
2019-02-06T02:19:17.641Z,36.93
2019-02-06T02:21:44.486Z,34.78
2019-02-06T02:24:12.690Z,38.13
2019-02-06T02:26:40.974Z,41.08
2019-02-06T02:29:13.205Z,44.40
2019-02-06T02:31:40.719Z,37.78
2019-02-06T02:34:11.258Z,40.00
2019-02-06T02:36:37.889Z,41.10
2019-02-06T02:39:06.101Z,38.02
2019-02-06T02:41:34.827Z,47.27
2019-02-06T02:44:01.449Z,45.25
2019-02-06T02:46:27.892Z,42.90
2019-02-06T02:48:58.117Z,43.38
2019-02-06T02:51:27.882Z,40.12
2019-02-06T02:54:04.949Z,44.95
2019-02-06T02:56:32.226Z,49.50
2019-02-06T02:59:02.255Z,42.80
2019-02-06T03:01:30.590Z,41.50
2019-02-06T03:04:01.236Z,44.93
2019-02-06T03:06:28.710Z,41.80
2019-02-06T03:08:55.334Z,47.25
2019-02-06T03:11:21.669Z,49.03
2019-02-06T03:13:48.166Z,48.87
2019-02-06T03:16:14.494Z,50.30
2019-02-06T03:18:40.864Z,47.65
2019-02-06T03:21:07.540Z,48.90
2019-02-06T03:23:34.250Z,46.00
2019-02-06T03:26:00.785Z,49.42
2019-02-06T03:28:27.239Z,48.35
2019-02-06T03:30:53.805Z,52.60
2019-02-06T03:33:23.633Z,50.23
2019-02-06T03:35:50.054Z,48.78
2019-02-06T03:38:19.332Z,52.35
2019-02-06T03:40:45.702Z,50.10
2019-02-06T03:43:12.093Z,46.73
2019-02-06T03:45:41.462Z,57.35
2019-02-06T03:48:08.345Z,48.50
2019-02-06T03:50:34.790Z,47.17
2019-02-06T03:53:02.578Z,46.63
2019-02-06T03:55:34.949Z,43.73
2019-02-06T03:58:04.180Z,49.40
2019-02-06T04:00:38.502Z,48.73
2019-02-06T04:03:09.805Z,52.08
2019-02-06T04:08:16.422Z,50.25
2019-02-06T04:10:42.763Z,42.30
2019-02-06T04:13:11.129Z,54.27
2019-02-06T04:15:38.757Z,51.02
2019-02-06T04:18:05.239Z,49.15
2019-02-06T04:20:31.567Z,45.17
2019-02-06T04:22:58.317Z,52.70
2019-02-06T04:25:24.606Z,59.00
2019-02-06T04:27:51.380Z,50.80
2019-02-06T04:30:19.821Z,51.42
2019-02-06T04:32:49.095Z,49.63
2019-02-06T04:35:15.838Z,53.73
2019-02-06T04:37:43.047Z,48.35
2019-02-06T04:40:18.150Z,46.45
2019-02-06T04:42:45.199Z,49.50
2019-02-06T04:45:15.016Z,48.50
2019-02-06T04:47:41.448Z,48.92
2019-02-06T04:50:10.516Z,42.67
2019-02-06T04:52:37.119Z,52.90
2019-02-06T04:55:06.503Z,47.20
2019-02-06T04:57:33.327Z,52.35
2019-02-06T04:59:59.989Z,54.90
2019-02-06T05:02:26.424Z,52.20
2019-02-06T05:04:52.782Z,50.12
2019-02-06T05:07:19.801Z,51.13
2019-02-06T05:09:46.384Z,46.08
2019-02-06T05:12:13.089Z,48.98
2019-02-06T05:14:39.976Z,52.58
2019-02-06T05:17:06.812Z,47.15
2019-02-06T05:19:34.050Z,49.13
2019-02-06T05:22:07.333Z,47.55
2019-02-06T05:24:39.159Z,43.80
2019-02-06T05:27:05.790Z,46.23
2019-02-06T05:29:32.611Z,49.35
2019-02-06T05:32:14.364Z,46.10
2019-02-06T05:34:41.538Z,45.80
2019-02-06T05:37:08.206Z,44.65
2019-02-06T05:39:34.719Z,48.38
2019-02-06T05:42:01.369Z,45.10
2019-02-06T05:44:27.840Z,43.55
2019-02-06T05:46:54.504Z,41.05
2019-02-06T05:49:20.996Z,51.68
2019-02-06T05:51:48.817Z,47.05
2019-02-06T05:54:31.767Z,50.08
2019-02-06T05:56:58.567Z,41.73
2019-02-06T05:59:35.851Z,44.00
2019-02-06T06:02:18.792Z,43.80
2019-02-06T06:04:50.263Z,45.33
2019-02-06T06:07:17.105Z,41.50
2019-02-06T06:09:43.396Z,44.80
2019-02-06T06:12:09.852Z,42.85
2019-02-06T06:14:36.209Z,43.75
2019-02-06T06:17:02.807Z,39.25
2019-02-06T06:19:29.215Z,38.92
2019-02-06T06:21:56.378Z,43.35
2019-02-06T06:24:22.726Z,38.73
2019-02-06T06:26:49.488Z,43.28
2019-02-06T06:29:32.658Z,42.00
2019-02-06T06:31:58.135Z,39.65
2019-02-06T06:34:27.464Z,39.90
2019-02-06T06:37:02.217Z,40.17
2019-02-06T06:39:29.183Z,48.13
2019-02-06T06:41:56.231Z,41.25
2019-02-06T06:44:23.503Z,35.95
2019-02-06T06:46:50.842Z,40.38
2019-02-06T06:49:17.505Z,36.75
2019-02-06T06:51:44.283Z,35.33
2019-02-06T06:54:20.355Z,36.98
2019-02-06T06:56:46.947Z,39.88
2019-02-06T06:59:13.363Z,40.90
2019-02-06T07:01:45.030Z,34.63
2019-02-06T07:04:12.721Z,38.70
2019-02-06T07:06:39.339Z,36.48
2019-02-06T07:09:07.567Z,39.98
2019-02-06T07:11:34.091Z,32.50
2019-02-06T07:14:01.079Z,38.73
2019-02-06T07:16:27.401Z,35.43
2019-02-06T07:18:53.899Z,34.05
2019-02-06T07:21:20.319Z,33.35
2019-02-06T07:23:53.523Z,41.65
2019-02-06T07:26:20.209Z,31.90
2019-02-06T07:28:46.828Z,35.05
2019-02-06T07:31:13.461Z,32.45
2019-02-06T07:33:40.479Z,30.12
2019-02-06T07:36:06.874Z,29.80
2019-02-06T07:38:33.432Z,37.20
2019-02-06T07:40:59.862Z,30.00
2019-02-06T07:43:26.292Z,33.28
2019-02-06T07:45:52.604Z,29.87
2019-02-06T07:48:21.706Z,33.58
2019-02-06T07:50:48.131Z,30.68
2019-02-06T07:53:15.491Z,29.70
2019-02-06T07:55:41.983Z,29.30
2019-02-06T07:58:08.571Z,26.60
2019-02-06T08:00:35.313Z,24.25
2019-02-06T08:03:02.019Z,23.07
2019-02-06T08:05:28.453Z,26.73
2019-02-06T08:07:58.373Z,27.10
2019-02-06T08:10:29.848Z,26.40
2019-02-06T08:12:56.297Z,24.75
2019-02-06T08:15:23.206Z,25.17
2019-02-06T08:17:53.223Z,23.92
2019-02-06T08:20:22.518Z,21.93
2019-02-06T08:22:49.957Z,21.90
2019-02-06T08:25:18.151Z,21.37
2019-02-06T08:27:45.522Z,20.17
2019-02-06T08:30:18.036Z,23.15
2019-02-06T08:32:44.616Z,24.77
2019-02-06T08:35:11.415Z,26.25
2019-02-06T08:37:38.458Z,23.75
2019-02-06T08:40:08.185Z,22.90
2019-02-06T08:42:34.764Z,22.52
2019-02-06T08:45:08.478Z,24.15
2019-02-06T08:47:35.163Z,20.65
2019-02-06T08:50:01.658Z,20.75
2019-02-06T08:52:28.348Z,19.73
2019-02-06T08:54:54.827Z,18.05
2019-02-06T08:57:21.707Z,17.73
2019-02-06T08:59:48.884Z,21.48
2019-02-06T09:02:15.327Z,21.95
2019-02-06T09:04:42.683Z,19.65
2019-02-06T09:07:09.281Z,20.25
2019-02-06T09:09:35.842Z,19.82
2019-02-06T09:12:05.953Z,22.67
2019-02-06T09:14:32.757Z,21.62
2019-02-06T09:16:59.549Z,22.17
2019-02-06T09:19:34.952Z,18.85
2019-02-06T09:22:01.374Z,20.37
2019-02-06T09:24:28.022Z,18.87
2019-02-06T09:26:56.686Z,19.37
2019-02-06T09:29:23.413Z,18.27
2019-02-06T09:31:50.001Z,17.30
2019-02-06T09:34:20.333Z,20.12
2019-02-06T09:36:47.359Z,19.80
2019-02-06T09:39:13.939Z,18.65
2019-02-06T09:41:40.487Z,17.40
2019-02-06T09:44:09.044Z,22.48
2019-02-06T09:46:35.412Z,16.17
2019-02-06T09:49:01.898Z,16.85
2019-02-06T09:51:28.722Z,17.45
2019-02-06T09:53:55.422Z,17.17
2019-02-06T09:56:21.851Z,17.60
2019-02-06T09:58:48.703Z,17.20
2019-02-06T10:01:15.403Z,17.05
2019-02-06T10:03:41.846Z,15.75
2019-02-06T10:06:08.498Z,16.95
2019-02-06T10:08:35.080Z,18.42
2019-02-06T10:11:01.923Z,15.40
2019-02-06T10:13:28.592Z,16.57
2019-02-06T10:15:55.262Z,14.87
2019-02-06T10:18:21.817Z,15.88
2019-02-06T10:20:51.899Z,14.90
2019-02-06T10:23:20.913Z,15.05
2019-02-06T10:25:47.838Z,15.43
2019-02-06T10:28:14.576Z,14.50
2019-02-06T10:30:46.922Z,15.48
2019-02-06T10:33:13.323Z,16.00
2019-02-06T10:35:40.088Z,12.97
2019-02-06T10:38:06.873Z,14.50
2019-02-06T10:40:33.429Z,15.67
2019-02-06T10:43:13.583Z,17.97
2019-02-06T10:45:51.397Z,13.67
2019-02-06T10:48:17.933Z,15.03
2019-02-06T10:50:46.416Z,13.00
2019-02-06T10:53:13.167Z,11.87
2019-02-06T10:55:40.058Z,13.53
2019-02-06T10:58:09.219Z,13.13
2019-02-06T11:00:42.122Z,14.33
2019-02-06T11:03:09.244Z,13.20
2019-02-06T11:05:36.643Z,15.28
2019-02-06T11:10:57.690Z,14.37
2019-02-06T11:13:26.805Z,15.23
2019-02-06T11:15:53.941Z,14.07
2019-02-06T11:18:20.675Z,14.70
2019-02-06T11:20:47.393Z,14.90
2019-02-06T11:23:14.270Z,15.20
2019-02-06T11:25:40.998Z,17.40
2019-02-06T11:28:08.053Z,14.40
2019-02-06T11:30:36.807Z,14.40
2019-02-06T11:33:04.646Z,16.43
2019-02-06T11:35:31.542Z,15.70
2019-02-06T11:37:58.269Z,16.30
2019-02-06T11:40:24.902Z,16.87
2019-02-06T11:42:52.631Z,15.83
2019-02-06T11:45:28.895Z,16.32
2019-02-06T11:47:56.579Z,18.00
2019-02-06T11:50:31.442Z,16.48
2019-02-06T11:52:59.695Z,15.53
2019-02-06T11:55:29.880Z,18.17
2019-02-06T11:57:56.541Z,15.47
2019-02-06T12:00:43.096Z,15.00
2019-02-06T12:03:25.541Z,15.75
2019-02-06T12:06:06.296Z,13.58
2019-02-06T12:08:36.854Z,13.33
2019-02-06T12:11:04.266Z,15.30
2019-02-06T12:13:31.175Z,16.43
2019-02-06T12:15:58.501Z,14.53
2019-02-06T12:18:25.192Z,13.80
2019-02-06T12:21:02.752Z,15.23
2019-02-06T12:23:42.197Z,14.17
2019-02-06T12:26:08.913Z,19.07
2019-02-06T12:28:35.774Z,19.63
2019-02-06T12:31:03.604Z,14.87
2019-02-06T12:33:30.053Z,15.45
2019-02-06T12:35:56.647Z,16.00
2019-02-06T12:38:23.083Z,16.00
2019-02-06T12:40:49.747Z,14.80
2019-02-06T12:43:34.293Z,15.68
2019-02-06T12:52:07.189Z,14.33
2019-02-06T12:54:35.249Z,15.10
2019-02-06T12:57:02.085Z,17.80
2019-02-06T12:59:29.398Z,17.32
2019-02-06T13:01:56.168Z,16.02
2019-02-06T13:04:23.409Z,16.95
2019-02-06T13:06:50.150Z,16.70
2019-02-06T13:09:16.699Z,14.98
2019-02-06T13:11:43.442Z,17.75
2019-02-06T13:14:09.797Z,16.37
2019-02-06T13:16:36.472Z,15.58
2019-02-06T13:19:03.443Z,15.63
2019-02-06T13:21:44.043Z,16.10
2019-02-06T13:24:10.323Z,14.35
2019-02-06T13:26:36.809Z,18.07
2019-02-06T13:29:03.804Z,16.10
2019-02-06T13:31:39.328Z,13.45
2019-02-06T13:34:05.933Z,14.63
2019-02-06T13:36:32.639Z,15.35
2019-02-06T13:39:00.172Z,16.80
2019-02-06T13:41:26.871Z,15.05
2019-02-06T13:43:53.997Z,16.00
2019-02-06T13:46:20.542Z,17.90
2019-02-06T13:48:47.707Z,17.87
2019-02-06T13:51:17.494Z,14.38
2019-02-06T13:53:42.725Z,13.18
2019-02-06T13:56:09.124Z,15.72
2019-02-06T13:58:36.505Z,14.87
2019-02-06T14:01:03.989Z,13.03
2019-02-06T14:03:30.973Z,14.18
2019-02-06T14:05:57.824Z,14.47
2019-02-06T14:08:24.772Z,15.40
2019-02-06T14:11:00.136Z,14.00
2019-02-06T14:13:20.391Z,16.07
2019-02-06T14:15:47.837Z,13.65
2019-02-06T14:18:15.158Z,13.33
2019-02-06T14:20:43.101Z,13.50
2019-02-06T14:23:16.295Z,13.33
2019-02-06T14:25:55.638Z,14.33
2019-02-06T14:28:47.456Z,14.13
2019-02-06T14:31:41.736Z,16.80
2019-02-06T14:34:17.564Z,14.70
2019-02-06T14:37:08.466Z,12.00
2019-02-06T14:39:55.015Z,15.70
2019-02-06T14:42:40.290Z,15.60
2019-02-06T14:45:39.754Z,12.70
2019-02-06T14:48:17.907Z,13.13
2019-02-06T14:50:57.564Z,12.30
2019-02-06T14:53:33.789Z,14.47
2019-02-06T14:56:21.027Z,12.07
2019-02-06T14:59:11.300Z,14.80
2019-02-06T15:02:11.533Z,13.43
2019-02-06T15:04:44.910Z,11.67
2019-02-06T15:07:18.585Z,13.75
2019-02-06T15:10:06.019Z,14.87
2019-02-06T15:13:03.889Z,13.07
2019-02-06T15:15:46.083Z,14.43
2019-02-06T15:18:28.978Z,13.70
2019-02-06T15:21:16.341Z,13.13
2019-02-06T15:24:06.335Z,13.70
2019-02-06T15:26:45.509Z,14.80
2019-02-06T15:29:37.919Z,14.55
2019-02-06T15:32:11.491Z,14.83
2019-02-06T15:34:56.582Z,15.47
2019-02-06T15:37:46.955Z,13.50
2019-02-06T15:40:23.515Z,14.38
2019-02-06T15:43:00.939Z,13.23
2019-02-06T15:45:34.715Z,15.05
2019-02-06T15:48:17.915Z,13.95
2019-02-06T15:51:16.852Z,13.72
2019-02-06T15:54:20.766Z,15.65
2019-02-06T15:57:02.856Z,14.73
2019-02-06T16:00:07.179Z,15.30
2019-02-06T16:02:43.636Z,14.83
2019-02-06T16:05:18.684Z,14.00
2019-02-06T16:07:48.884Z,17.92
2019-02-06T16:10:21.993Z,16.90
2019-02-06T16:13:15.382Z,14.63
2019-02-06T16:15:48.776Z,17.03
2019-02-06T16:18:43.062Z,18.32
2019-02-06T16:21:16.388Z,15.98
2019-02-06T16:23:50.132Z,17.23
2019-02-06T16:26:29.438Z,19.75
2019-02-06T16:29:26.648Z,16.27
2019-02-06T16:32:22.826Z,17.50
2019-02-06T16:35:07.401Z,16.27
2019-02-06T16:38:08.289Z,19.30
2019-02-06T16:40:53.665Z,15.80
2019-02-06T16:43:39.454Z,15.73
2019-02-06T16:46:27.942Z,18.32
2019-02-06T16:49:03.577Z,17.52
2019-02-06T16:51:36.886Z,24.13
2019-02-06T16:54:10.086Z,17.75
2019-02-06T16:56:43.270Z,18.90
2019-02-06T16:59:29.780Z,20.00
2019-02-06T17:02:11.926Z,17.07
2019-02-06T17:04:42.251Z,20.65
2019-02-06T17:07:27.038Z,18.67
2019-02-06T17:10:10.486Z,19.30
2019-02-06T17:12:41.199Z,18.12
2019-02-06T17:15:20.387Z,21.82
2019-02-06T17:17:50.423Z,26.77
2019-02-06T17:20:38.753Z,21.17
2019-02-06T17:23:27.323Z,22.60
2019-02-06T17:26:19.063Z,23.30
2019-02-06T17:29:04.358Z,25.27
2019-02-06T17:31:37.467Z,24.63
2019-02-06T17:34:41.409Z,22.53
2019-02-06T17:37:32.624Z,22.70
2019-02-06T17:40:08.421Z,22.63
2019-02-06T17:43:05.824Z,24.57
2019-02-06T17:45:41.419Z,27.20
2019-02-06T17:48:17.545Z,27.13
2019-02-06T17:50:54.088Z,26.82
2019-02-06T17:53:43.787Z,26.27
2019-02-06T17:56:10.160Z,27.85
2019-02-06T17:58:37.281Z,29.50
2019-02-06T18:01:07.707Z,29.83
2019-02-06T18:03:37.499Z,29.13
2019-02-06T18:06:04.442Z,29.50
2019-02-06T18:08:30.679Z,31.57
2019-02-06T18:10:58.796Z,29.50
2019-02-06T18:13:25.293Z,28.63
2019-02-06T18:15:51.527Z,29.90
2019-02-06T18:18:17.963Z,26.30
2019-02-06T18:20:44.820Z,29.12
2019-02-06T18:23:11.059Z,26.33
2019-02-06T18:25:37.522Z,30.97
2019-02-06T18:28:04.463Z,26.37
2019-02-06T18:30:30.803Z,29.70
2019-02-06T18:32:58.131Z,26.70
2019-02-06T18:35:24.719Z,29.80
2019-02-06T18:37:51.283Z,27.93
2019-02-06T18:40:22.885Z,28.20
2019-02-06T18:42:49.670Z,28.92
2019-02-06T18:45:17.519Z,28.63
2019-02-06T18:47:44.163Z,28.70
2019-02-06T18:50:31.168Z,28.37
2019-02-06T18:52:57.871Z,30.43
2019-02-06T18:55:24.120Z,28.30
2019-02-06T18:57:51.065Z,30.85
2019-02-06T19:00:23.922Z,30.27
2019-02-06T19:02:50.465Z,29.82
2019-02-06T19:05:26.729Z,29.37
2019-02-06T19:07:53.023Z,30.48
2019-02-06T19:10:22.790Z,31.52
2019-02-06T19:12:50.821Z,30.52
2019-02-06T19:15:17.223Z,28.62
2019-02-06T19:17:44.064Z,27.35
2019-02-06T19:20:15.647Z,27.27
2019-02-06T19:22:42.160Z,27.00
2019-02-06T19:25:11.712Z,28.13
2019-02-06T19:27:37.972Z,27.55
2019-02-06T19:30:08.023Z,26.75
2019-02-06T19:32:34.259Z,28.23
2019-02-06T19:35:00.487Z,30.20
2019-02-06T19:37:27.151Z,25.50
2019-02-06T19:39:53.836Z,33.25
2019-02-06T19:42:20.154Z,28.53
2019-02-06T19:44:46.359Z,25.57
2019-02-06T19:47:12.664Z,28.53
2019-02-06T19:49:39.168Z,26.20
2019-02-06T19:52:05.532Z,27.00
2019-02-06T19:54:31.775Z,27.90
2019-02-06T19:56:58.033Z,28.50
2019-02-06T19:59:24.372Z,27.00
2019-02-06T20:01:51.230Z,32.10
2019-02-06T20:04:17.494Z,33.20
2019-02-06T20:06:43.828Z,32.20
2019-02-06T20:09:10.094Z,31.47
2019-02-06T20:11:36.694Z,41.30
2019-02-06T20:14:03.601Z,31.53
2019-02-06T20:16:30.239Z,29.17
2019-02-06T20:18:56.462Z,28.20
2019-02-06T20:21:23.103Z,32.47
2019-02-06T20:23:49.356Z,27.13
2019-02-06T20:26:15.969Z,29.63
2019-02-06T20:28:42.539Z,28.10
2019-02-06T20:31:08.768Z,29.67
2019-02-06T20:33:35.028Z,29.67
2019-02-06T20:36:01.613Z,26.53
2019-02-06T20:38:27.866Z,29.20
2019-02-06T20:40:54.205Z,26.20
2019-02-06T20:43:22.184Z,27.97
2019-02-06T20:45:48.783Z,26.87
2019-02-06T20:48:15.311Z,26.07
2019-02-06T20:50:42.259Z,25.02
2019-02-06T20:53:08.483Z,29.10
2019-02-06T20:55:34.736Z,27.87
2019-02-06T20:58:01.086Z,27.00
2019-02-06T21:00:33.952Z,26.73
2019-02-06T21:03:00.564Z,24.63
2019-02-06T21:05:27.706Z,28.80
2019-02-06T21:07:54.258Z,27.93
2019-02-06T21:10:32.496Z,29.20
2019-02-06T21:12:58.995Z,28.15
2019-02-06T21:15:25.545Z,26.03
2019-02-06T21:17:51.803Z,26.82
2019-02-06T21:20:20.457Z,28.93
2019-02-06T21:22:46.912Z,27.43
2019-02-06T21:25:15.732Z,24.80
2019-02-06T21:27:42.178Z,28.75
2019-02-06T21:30:15.183Z,25.13
2019-02-06T21:32:41.396Z,28.70
2019-02-06T21:35:08.548Z,28.33
2019-02-06T21:37:34.880Z,28.10
2019-02-06T21:40:01.475Z,28.17
2019-02-06T21:42:27.703Z,25.80
2019-02-06T21:44:54.151Z,28.90
2019-02-06T21:47:20.370Z,28.23
2019-02-06T21:49:46.636Z,28.17
2019-02-06T21:52:12.865Z,31.43
2019-02-06T21:54:39.102Z,34.57
2019-02-06T21:57:05.354Z,29.70
2019-02-06T21:59:31.584Z,29.60
2019-02-06T22:01:57.915Z,31.27
2019-02-06T22:04:24.659Z,31.20
2019-02-06T22:06:50.912Z,36.50
2019-02-06T22:09:17.154Z,34.07
2019-02-06T22:11:43.650Z,34.77
2019-02-06T22:14:10.119Z,33.77
2019-02-06T22:16:36.343Z,35.00
2019-02-06T22:19:03.787Z,35.50
2019-02-06T22:21:30.309Z,39.87
2019-02-06T22:23:56.536Z,39.50
2019-02-06T22:26:22.805Z,34.23
2019-02-06T22:28:49.035Z,40.48
2019-02-06T22:31:15.247Z,36.00
2019-02-06T22:33:41.508Z,38.73
2019-02-06T22:36:07.851Z,32.30
2019-02-06T22:38:34.095Z,37.30
2019-02-06T22:41:00.663Z,38.88
2019-02-06T22:43:27.405Z,34.77
2019-02-06T22:45:53.639Z,34.50
2019-02-06T22:48:20.259Z,35.95
2019-02-06T22:50:46.795Z,36.33
2019-02-06T22:53:13.045Z,36.73
2019-02-06T22:55:39.762Z,35.95
2019-02-06T22:58:06.118Z,33.43
2019-02-06T23:00:59.316Z,38.70
2019-02-06T23:03:28.894Z,40.60
2019-02-06T23:05:55.224Z,37.17
2019-02-06T23:08:21.473Z,38.20
2019-02-06T23:10:47.720Z,35.77
2019-02-06T23:13:14.358Z,40.00
2019-02-06T23:15:41.147Z,39.03
2019-02-06T23:18:07.866Z,36.70
2019-02-06T23:20:34.632Z,35.10
2019-02-06T23:23:00.857Z,36.40
2019-02-06T23:25:27.378Z,38.80
2019-02-06T23:27:53.604Z,40.37
2019-02-06T23:30:20.248Z,35.90
2019-02-06T23:32:46.670Z,41.93
2019-02-06T23:35:13.120Z,35.13
2019-02-06T23:37:39.357Z,39.60
2019-02-06T23:40:09.405Z,36.80
2019-02-06T23:42:35.655Z,41.57
2019-02-06T23:45:03.188Z,38.53
2019-02-06T23:47:29.415Z,40.00
2019-02-06T23:49:55.981Z,35.20
2019-02-06T23:52:22.330Z,39.00
2019-02-06T23:54:48.571Z,38.97
2019-02-06T23:57:14.803Z,38.87
2019-02-06T23:59:41.035Z,37.70
